createdAt,value
2022-09-11T00:01:33.232Z,15.70
2022-09-11T00:06:35.878Z,15.70
2022-09-11T00:11:41.350Z,15.50
2022-09-11T00:16:47.340Z,15.30
2022-09-11T00:21:50.854Z,15.00
2022-09-11T00:26:53.546Z,14.60
2022-09-11T00:31:57.789Z,14.40
2022-09-11T00:37:00.465Z,14.30
2022-09-11T00:42:03.147Z,14.30
2022-09-11T00:47:09.985Z,14.20
2022-09-11T00:52:18.944Z,14.20
2022-09-11T00:57:24.147Z,14.10
2022-09-11T01:02:31.226Z,14.00
2022-09-11T01:07:35.413Z,14.00
2022-09-11T01:12:47.774Z,14.20
2022-09-11T01:17:56.800Z,14.20
2022-09-11T01:23:28.152Z,14.20
2022-09-11T01:28:37.672Z,13.90
2022-09-11T01:33:44.799Z,13.70
2022-09-11T01:38:51.484Z,13.70
2022-09-11T01:43:59.038Z,13.70
2022-09-11T01:49:07.524Z,13.60
2022-09-11T01:54:12.762Z,13.50
2022-09-11T01:59:20.651Z,13.50
2022-09-11T02:04:27.360Z,13.50
2022-09-11T02:09:35.743Z,13.40
2022-09-11T02:14:42.298Z,13.40
2022-09-11T02:19:45.095Z,13.50
2022-09-11T02:24:48.038Z,13.60
2022-09-11T02:29:53.797Z,13.70
2022-09-11T02:34:58.066Z,13.70
2022-09-11T02:40:11.061Z,13.70
2022-09-11T02:45:28.850Z,13.70
2022-09-11T02:50:40.203Z,13.70
2022-09-11T02:55:53.543Z,13.70
2022-09-11T03:00:59.920Z,13.60
2022-09-11T03:06:02.815Z,13.50
2022-09-11T03:11:05.691Z,13.40
2022-09-11T03:16:09.686Z,13.20
2022-09-11T03:21:12.451Z,13.10
2022-09-11T03:26:17.216Z,13.00
2022-09-11T03:31:21.718Z,12.90
2022-09-11T03:36:24.595Z,12.90
2022-09-11T03:41:27.607Z,12.80
2022-09-11T03:46:33.066Z,12.80
2022-09-11T03:51:35.728Z,12.80
2022-09-11T03:56:38.358Z,12.80
2022-09-11T04:01:42.323Z,12.70
2022-09-11T04:06:45.111Z,12.70
2022-09-11T04:11:47.725Z,12.70
2022-09-11T04:16:51.648Z,12.70
2022-09-11T04:21:54.252Z,12.70
2022-09-11T04:27:00.606Z,12.70
2022-09-11T04:32:05.223Z,12.60
2022-09-11T04:37:07.963Z,12.60
2022-09-11T04:42:10.746Z,12.60
2022-09-11T04:47:16.058Z,12.80
2022-09-11T04:52:18.730Z,13.00
2022-09-11T04:57:21.359Z,13.30
2022-09-11T05:02:33.958Z,13.60
2022-09-11T05:07:36.987Z,13.70
2022-09-11T05:12:39.710Z,13.70
2022-09-11T05:17:43.647Z,13.70
2022-09-11T05:22:47.091Z,14.00
2022-09-11T05:27:50.193Z,14.50
2022-09-11T05:32:55.767Z,14.80
2022-09-11T05:37:58.463Z,14.90
2022-09-11T05:43:01.135Z,15.30
2022-09-11T05:48:05.204Z,15.60
2022-09-11T05:53:07.798Z,15.80
2022-09-11T05:58:11.279Z,15.90
2022-09-11T06:03:15.953Z,16.00
2022-09-11T06:08:19.323Z,16.10
2022-09-11T06:13:22.353Z,16.10
2022-09-11T06:18:26.719Z,16.10
2022-09-11T06:23:30.750Z,16.30
2022-09-11T06:28:35.247Z,16.90
2022-09-11T06:33:41.419Z,17.30
2022-09-11T06:38:44.731Z,17.60
2022-09-11T06:43:47.697Z,17.80
2022-09-11T06:48:52.607Z,17.80
2022-09-11T06:53:57.937Z,17.70
2022-09-11T06:59:01.048Z,17.60
2022-09-11T07:04:05.127Z,17.70
2022-09-11T07:09:07.776Z,17.70
2022-09-11T07:14:10.635Z,18.00
2022-09-11T07:19:14.596Z,18.00
2022-09-11T07:24:17.325Z,17.70
2022-09-11T07:29:19.936Z,17.70
2022-09-11T07:34:23.863Z,17.90
2022-09-11T07:39:26.507Z,17.80
2022-09-11T07:44:29.128Z,18.00
2022-09-11T07:49:33.164Z,18.60
2022-09-11T07:54:35.787Z,19.10
2022-09-11T07:59:39.279Z,19.10
2022-09-11T08:04:43.287Z,19.00
2022-09-11T08:09:45.894Z,19.00
2022-09-11T08:14:48.586Z,19.30
2022-09-11T08:19:52.589Z,19.30
2022-09-11T08:24:55.395Z,19.40
2022-09-11T08:29:58.115Z,19.10
2022-09-11T08:35:02.020Z,18.50
2022-09-11T08:40:05.277Z,18.30
2022-09-11T08:45:14.558Z,18.40
2022-09-11T08:50:24.982Z,18.50
2022-09-11T08:55:33.617Z,18.30
2022-09-11T09:00:42.806Z,17.90
2022-09-11T09:05:54.291Z,17.70
2022-09-11T09:11:05.607Z,18.00
2022-09-11T09:16:20.903Z,18.30
2022-09-11T09:21:29.820Z,18.50
2022-09-11T09:26:39.728Z,18.70
2022-09-11T09:31:45.380Z,18.70
2022-09-11T09:36:56.887Z,19.10
2022-09-11T09:42:30.503Z,19.50
2022-09-11T09:47:34.127Z,18.90
2022-09-11T09:52:38.082Z,18.50
2022-09-11T09:57:40.783Z,18.40
2022-09-11T10:02:45.412Z,18.70
2022-09-11T10:07:51.523Z,19.00
2022-09-11T10:13:17.295Z,19.20
2022-09-11T10:18:40.129Z,19.30
2022-09-11T10:23:49.943Z,19.20
2022-09-11T10:28:54.521Z,18.60
2022-09-11T10:33:59.500Z,18.00
2022-09-11T10:39:03.777Z,17.90
2022-09-11T10:49:24.639Z,17.90
2022-09-11T10:54:41.162Z,17.80
2022-09-11T10:59:56.261Z,17.60
2022-09-11T11:05:02.522Z,17.90
2022-09-11T11:10:17.897Z,17.90
2022-09-11T11:15:45.330Z,18.10
2022-09-11T11:20:59.033Z,18.50
2022-09-11T11:26:17.145Z,18.50
2022-09-11T11:31:40.328Z,18.20
2022-09-11T11:36:49.810Z,18.10
2022-09-11T11:42:07.139Z,18.00
2022-09-11T11:47:11.575Z,17.90
2022-09-11T11:52:24.843Z,17.70
2022-09-11T11:57:33.780Z,17.40
2022-09-11T12:02:44.319Z,17.30
2022-09-11T12:07:48.158Z,17.30
2022-09-11T12:12:57.406Z,17.20
2022-09-11T12:18:02.856Z,17.20
2022-09-11T12:23:08.702Z,17.70
2022-09-11T12:28:23.307Z,18.10
2022-09-11T12:33:51.906Z,18.40
2022-09-11T12:38:57.491Z,18.20
2022-09-11T12:44:02.689Z,18.40
2022-09-11T12:49:22.049Z,18.50
2022-09-11T12:54:28.746Z,18.40
2022-09-11T12:59:37.926Z,18.10
2022-09-11T13:04:44.643Z,18.20
2022-09-11T13:09:49.743Z,18.30
2022-09-11T13:14:54.349Z,18.60
2022-09-11T13:20:22.389Z,19.20
2022-09-11T13:25:26.454Z,19.80
2022-09-11T13:30:30.578Z,25.70
2022-09-11T13:35:34.803Z,30.60
2022-09-11T13:40:45.465Z,32.40
2022-09-11T13:45:49.675Z,33.00
2022-09-11T13:50:53.816Z,30.30
2022-09-11T13:55:56.474Z,31.30
2022-09-11T14:01:11.355Z,33.60
2022-09-11T14:06:18.035Z,35.00
2022-09-11T14:11:27.034Z,36.30
2022-09-11T14:16:33.519Z,36.90
2022-09-11T14:21:39.036Z,33.20
2022-09-11T14:26:42.127Z,31.80
2022-09-11T14:31:46.171Z,29.10
2022-09-11T14:36:56.019Z,27.70
2022-09-11T14:41:59.510Z,27.10
2022-09-11T14:47:03.449Z,25.20
2022-09-11T14:52:06.666Z,24.10
2022-09-11T14:57:16.163Z,23.30
2022-09-11T15:02:24.997Z,23.00
2022-09-11T15:07:28.219Z,22.80
2022-09-11T15:12:30.900Z,22.80
2022-09-11T15:17:36.233Z,22.90
2022-09-11T15:22:39.713Z,23.10
2022-09-11T15:27:42.426Z,26.20
2022-09-11T15:32:46.382Z,24.60
2022-09-11T15:37:48.999Z,22.60
2022-09-11T15:42:51.911Z,21.50
2022-09-11T15:47:55.912Z,21.10
2022-09-11T15:52:58.727Z,21.50
2022-09-11T15:58:01.414Z,21.10
2022-09-11T16:03:05.378Z,21.20
2022-09-11T16:08:08.045Z,21.70
2022-09-11T16:13:10.722Z,21.60
2022-09-11T16:18:17.232Z,21.10
2022-09-11T16:23:21.937Z,21.10
2022-09-11T16:28:24.688Z,21.30
2022-09-11T16:33:29.545Z,21.40
2022-09-11T16:38:32.939Z,21.10
2022-09-11T16:43:36.050Z,20.80
2022-09-11T16:48:40.658Z,20.50
2022-09-11T16:53:43.563Z,20.30
2022-09-11T16:58:46.465Z,20.50
2022-09-11T17:03:52.647Z,20.50
2022-09-11T17:08:55.352Z,20.30
2022-09-11T17:14:00.563Z,19.90
2022-09-11T17:19:04.858Z,19.70
2022-09-11T17:24:08.653Z,19.30
2022-09-11T17:29:11.284Z,19.10
2022-09-11T17:34:15.554Z,18.90
2022-09-11T17:39:18.182Z,18.80
2022-09-11T17:44:24.542Z,18.60
2022-09-11T17:49:28.499Z,18.60
2022-09-11T17:54:31.131Z,18.40
2022-09-11T17:59:33.879Z,18.30
2022-09-11T18:04:38.501Z,18.10
2022-09-11T18:09:41.211Z,18.00
2022-09-11T18:14:43.911Z,18.00
2022-09-11T18:19:48.659Z,18.00
2022-09-11T18:24:51.472Z,17.90
2022-09-11T18:29:54.541Z,17.80
2022-09-11T18:35:00.131Z,17.70
2022-09-11T18:40:03.405Z,17.20
2022-09-11T18:45:07.308Z,17.00
2022-09-11T18:50:11.827Z,17.10
2022-09-11T18:55:14.715Z,16.90
2022-09-11T19:00:19.143Z,16.70
2022-09-11T19:05:24.901Z,16.70
2022-09-11T19:10:28.242Z,16.50
2022-09-11T19:15:31.091Z,16.40
2022-09-11T19:20:35.226Z,16.20
2022-09-11T19:25:38.267Z,16.10
2022-09-11T19:30:43.445Z,16.00
2022-09-11T19:35:55.548Z,16.10
2022-09-11T19:41:00.258Z,16.10
2022-09-11T19:46:03.578Z,16.10
2022-09-11T19:51:10.408Z,16.20
2022-09-11T19:56:13.476Z,16.20
2022-09-11T20:01:18.569Z,16.10
2022-09-11T20:06:24.387Z,16.00
2022-09-11T20:11:27.969Z,16.10
2022-09-11T20:16:31.097Z,16.20
2022-09-11T20:21:36.168Z,16.20
2022-09-11T20:26:38.962Z,16.20
2022-09-11T20:31:48.003Z,16.30
2022-09-11T20:36:52.438Z,16.30
2022-09-11T20:41:55.060Z,16.30
2022-09-11T20:46:57.840Z,16.20
2022-09-11T20:52:01.817Z,16.20
2022-09-11T20:57:04.782Z,16.20
2022-09-11T21:02:07.786Z,16.10
2022-09-11T21:07:11.936Z,16.10
2022-09-11T21:12:19.078Z,16.10
2022-09-11T21:17:21.720Z,16.10
2022-09-11T21:22:25.716Z,16.00
2022-09-11T21:27:28.371Z,16.00
2022-09-11T21:32:30.998Z,15.80
2022-09-11T21:37:40.666Z,15.60
2022-09-11T21:42:45.388Z,15.30
2022-09-11T21:47:48.017Z,15.20
2022-09-11T21:52:56.889Z,15.10
2022-09-11T21:58:00.142Z,15.10
2022-09-11T22:03:02.805Z,15.20
2022-09-11T22:08:07.167Z,15.30
2022-09-11T22:13:10.972Z,15.30
2022-09-11T22:18:13.719Z,15.40
2022-09-11T22:23:21.753Z,15.30
2022-09-11T22:28:24.368Z,15.10
2022-09-11T22:33:27.101Z,15.10
2022-09-11T22:38:31.035Z,15.20
2022-09-11T22:43:33.830Z,15.20
2022-09-11T22:48:36.879Z,15.20
2022-09-11T22:53:40.909Z,15.10
2022-09-11T22:58:43.673Z,15.10
2022-09-11T23:03:46.376Z,15.20
2022-09-11T23:08:51.178Z,15.20
2022-09-11T23:13:53.899Z,15.20
2022-09-11T23:18:57.540Z,15.20
2022-09-11T23:24:01.966Z,15.20
2022-09-11T23:29:04.610Z,15.20
2022-09-11T23:34:18.465Z,15.30
2022-09-11T23:39:29.122Z,15.40
2022-09-11T23:44:31.893Z,15.60
2022-09-11T23:49:36.498Z,15.60
2022-09-11T23:54:40.822Z,15.80
2022-09-11T23:59:46.871Z,15.80
